EGPK/PIK METAR and TAF weather

Enter ICAO airport designator
Station Type Date Time Source
EGPK METAR 2019/10/16 19:50 UTC NOAA

EGPK 161950Z 15003KT 9999 FEW020 08/05 Q1000


Station Type Date Time Source
EGPK Decoded METAR 2019/10/16 19:50 UTC NOAA

Prestwick Airport, United Kingdom (EGPK) 55-30N 004-35W 0M
Oct 16, 2019 - 03:50 PM EDT / 2019.10.16 1950 UTC
Wind: from the SSE (150 degrees) at 3 MPH (3 KT):0
Visibility: greater than 7 mile(s):0
Sky conditions: mostly clear
Temperature: 46 F (8 C)
Dew Point: 41 F (5 C)
Relative Humidity: 81%
Pressure (altimeter): 29.53 in. Hg (1000 hPa)
ob: EGPK 161950Z 15003KT 9999 FEW020 08/05 Q1000
cycle: 20

Station Type Date Time Source
EGPK TAF 2019/10/16 18:09 UTC NOAA

TAF EGPK 161704Z 1618/1718 22010KT 9999 FEW020 PROB30
TEMPO 1700/1708 7000 SHRA
BECMG 1704/1707 14011KT
TEMPO 1708/1718 6000 SHRA BKN014

Example: see airport list